Time;durP1;ratioP1;P1;durP2;ratioP2;P2;SDS_P1;SDS_P2;PMS_P1;PMS_P2;Temp;Humidity;BMP_temperature;BMP_pressure;BME280_temperature;BME280_humidity;BME280_pressure;Samples;Min_cycle;Max_cycle;Signal;HPM_P1;HPM_P2
2023/01/11 00:00:37;;;;;;;;;;;9.50;91.90;;;8.44;76.21;99916.88;6150003;23;19920;-81
2023/01/11 00:03:05;;;;;;;;;;;9.60;91.60;;;8.43;76.01;99904.63;6149448;23;19967;-81
2023/01/11 00:05:37;;;;;;;;;;;9.60;91.60;;;8.39;76.04;99919.34;6148251;23;19924;-81
2023/01/11 00:08:05;;;;;;;;;;;9.60;91.60;;;8.40;76.26;99915.69;6149470;23;19959;-81
2023/01/11 00:10:32;;;;;;;;;;;9.60;91.70;;;8.41;76.63;99918.13;6151024;23;19920;-81
2023/01/11 00:12:59;;;;;;;;;;;9.60;91.80;;;8.42;76.58;99918.94;6149382;23;19921;-81
2023/01/11 00:15:26;;;;;;;;;;;9.50;92.00;;;8.43;76.62;99915.25;6150683;23;19920;-81
2023/01/11 00:17:56;;;;;;;;;;;9.60;92.00;;;8.41;76.63;99906.69;6149814;23;19924;-81
2023/01/11 00:20:23;;;;;;;;;;;9.60;92.00;;;8.40;76.54;99915.69;6149778;23;19921;-81
2023/01/11 00:22:50;;;;;;;;;;;9.60;91.80;;;8.41;76.75;99912.00;6148083;23;20347;-81
2023/01/11 00:25:17;;;;;;;;;;;9.60;92.00;;;8.42;76.56;99890.50;6149477;23;19926;-81
2023/01/11 00:27:46;;;;;;;;;;;9.60;91.90;;;8.43;76.85;99896.63;6148034;23;19956;-81
2023/01/11 00:30:13;;;;;;;;;;;9.60;91.80;;;8.41;76.58;99896.06;6149849;23;19968;-81
2023/01/11 00:32:40;;;;;;;;;;;9.60;92.00;;;8.45;76.58;99891.94;6149945;23;20361;-81
2023/01/11 00:35:09;;;;;;;;;;;9.60;91.80;;;8.45;76.58;99886.63;6149718;23;19923;-81
2023/01/11 00:37:36;;;;;;;;;;;9.60;92.00;;;8.48;76.51;99889.66;6148975;23;20335;-81
2023/01/11 00:40:04;;;;;;;;;;;9.60;91.80;;;8.54;76.33;99889.84;6150133;23;19927;-81
2023/01/11 00:48:00;;;;;;;;;;;9.70;91.80;;;8.55;76.02;99875.56;6150387;23;19971;-81
2023/01/11 00:50:31;;;;;;;;;;;9.70;91.60;;;8.54;76.18;99881.88;6148649;23;19920;-81
2023/01/11 00:52:59;;;;;;;;;;;9.70;91.60;;;8.53;76.42;99883.72;6149089;23;19916;-81
2023/01/11 00:55:26;;;;;;;;;;;9.70;92.00;;;8.55;76.41;99894.16;6148166;23;19939;-81
2023/01/11 00:57:53;;;;;;;;;;;9.70;92.20;;;8.55;76.52;99876.38;6148398;23;20272;-81
2023/01/11 01:00:21;;;;;;;;;;;9.50;91.90;;;8.58;76.30;99870.59;6148687;23;19999;-81
2023/01/11 01:02:49;;;;;;;;;;;9.70;92.00;;;8.57;76.37;99874.28;6147529;23;20594;-81
2023/01/11 01:05:16;;;;;;;;;;;9.70;92.10;;;8.55;76.78;99876.38;6147882;23;20340;-81
2023/01/11 01:07:45;;;;;;;;;;;9.70;92.20;;;8.56;76.79;99883.31;6147696;23;19920;-81
2023/01/11 01:10:13;;;;;;;;;;;9.70;92.30;;;8.61;76.59;99882.66;6147069;23;19927;-81
2023/01/11 01:15:25;;;;;;;;;;;9.70;92.40;;;8.61;76.75;99872.84;6148687;23;20340;-81
2023/01/11 01:17:54;;;;;;;;;;;9.70;92.40;;;8.61;76.86;99867.53;6147933;23;19917;-81
2023/01/11 01:20:21;;;;;;;;;;;9.70;92.40;;;8.67;76.86;99860.53;6147455;23;19968;-81
2023/01/11 01:22:50;;;;;;;;;;;9.90;92.50;;;8.67;76.84;99864.00;6147056;23;19916;-81
2023/01/11 01:25:17;;;;;;;;;;;9.80;92.30;;;8.69;76.96;99861.16;6147911;23;19928;-81
2023/01/11 01:27:44;;;;;;;;;;;9.80;92.50;;;8.68;77.21;99867.47;6146888;23;19925;-81
2023/01/11 01:30:12;;;;;;;;;;;9.80;92.40;;;8.70;77.04;99866.25;6149324;23;19971;-81
2023/01/11 01:32:39;;;;;;;;;;;9.80;92.50;;;8.74;77.12;99867.47;6151078;23;19917;-81
2023/01/11 01:35:06;;;;;;;;;;;9.90;92.50;;;8.73;77.48;99865.00;6149374;23;20355;-81
2023/01/11 01:37:33;;;;;;;;;;;9.90;92.60;;;8.76;77.22;99862.72;6150941;23;19944;-81
2023/01/11 01:40:02;;;;;;;;;;;9.90;92.50;;;8.74;77.21;99856.81;6151274;23;19926;-81
2023/01/11 01:42:28;;;;;;;;;;;9.90;92.60;;;8.78;77.17;99838.56;6151840;23;20395;-81
2023/01/11 01:45:02;;;;;;;;;;;9.90;92.50;;;8.80;76.82;99841.84;6150190;23;19920;-81
2023/01/11 01:47:45;;;;;;;;;;;9.90;92.50;;;8.84;76.89;99844.91;6150051;23;20351;-81
2023/01/11 01:50:16;;;;;;;;;;;9.90;92.50;;;8.83;77.14;99844.06;6151882;23;19920;-81
2023/01/11 01:52:45;;;;;;;;;;;10.00;92.50;;;8.86;77.02;99846.31;6150990;23;19920;-81
2023/01/11 01:55:18;;;;;;;;;;;10.00;92.40;;;8.88;76.98;99838.09;6150935;23;19920;-81
2023/01/11 01:57:45;;;;;;;;;;;10.00;92.50;;;8.89;77.16;99834.44;6149173;23;20529;-81
2023/01/11 02:00:13;;;;;;;;;;;10.00;92.50;;;8.91;77.16;99837.69;6150935;23;20027;-81
2023/01/11 02:02:43;;;;;;;;;;;10.00;92.60;;;8.94;77.46;99834.59;6151101;23;19932;-81
2023/01/11 02:05:10;;;;;;;;;;;10.10;92.90;;;8.96;77.46;99836.00;6151083;23;19942;-81
2023/01/11 02:07:40;;;;;;;;;;;10.10;92.80;;;8.94;77.89;99824.78;6151200;23;19926;-80
2023/01/11 02:10:09;;;;;;;;;;;10.10;93.20;;;8.96;78.15;99824.56;6149378;23;19927;-81
2023/01/11 02:12:39;;;;;;;;;;;10.10;93.40;;;8.96;78.47;99824.56;6150712;23;19921;-81
2023/01/11 02:15:09;;;;;;;;;;;10.10;93.70;;;8.93;78.75;99825.81;6150197;23;19921;-81
2023/01/11 02:17:36;;;;;;;;;;;10.10;94.00;;;8.93;79.01;99820.50;6150827;23;19954;-81
2023/01/11 02:20:21;;;;;;;;;;;10.10;94.00;;;8.93;79.24;99822.31;6149226;23;19951;-81
2023/01/11 02:23:09;;;;;;;;;;;10.10;94.30;;;8.93;79.94;99838.28;6149982;23;20237;-81
2023/01/11 02:26:02;;;;;;;;;;;10.10;94.50;;;8.95;79.98;99828.25;6150856;23;20025;-81
2023/01/11 02:28:32;;;;;;;;;;;10.10;95.00;;;8.97;79.95;99826.19;6149085;23;19917;-81
2023/01/11 02:31:06;;;;;;;;;;;10.10;95.00;;;8.96;80.39;99832.53;6150564;23;19916;-81
2023/01/11 02:33:38;;;;;;;;;;;10.10;95.00;;;8.94;80.83;99822.13;6151455;23;19999;-81
2023/01/11 02:36:13;;;;;;;;;;;10.10;95.40;;;8.96;80.90;99811.25;6150107;23;19921;-81
2023/01/11 02:38:43;;;;;;;;;;;10.10;95.60;;;8.95;81.31;99805.13;6150707;23;19916;-81
2023/01/11 02:41:18;;;;;;;;;;;10.10;95.80;;;8.97;81.36;99810.22;6151048;23;19920;-81
2023/01/11 02:46:42;;;;;;;;;;;10.10;95.80;;;8.94;81.53;99800.84;6149762;23;19927;-81
2023/01/11 02:49:13;;;;;;;;;;;10.10;96.00;;;8.97;81.49;99804.91;6149821;23;19923;-81
2023/01/11 02:51:42;;;;;;;;;;;10.10;96.00;;;8.98;81.62;99799.38;6150839;23;19920;-81
2023/01/11 02:54:11;;;;;;;;;;;10.10;95.80;;;8.98;81.53;99801.22;6150948;23;20023;-81
2023/01/11 02:56:41;;;;;;;;;;;10.10;96.10;;;8.97;81.68;99807.56;6150646;23;19920;-81
2023/01/11 02:59:12;;;;;;;;;;;10.10;96.20;;;8.98;81.88;99795.91;6148453;23;19942;-81
2023/01/11 03:01:46;;;;;;;;;;;10.10;96.20;;;9.00;82.03;99799.16;6146064;23;19926;-81
2023/01/11 03:04:24;;;;;;;;;;;10.10;96.40;;;9.01;81.90;99795.47;6147977;23;20003;-81
2023/01/11 03:06:58;;;;;;;;;;;10.10;96.20;;;9.02;82.20;99786.44;6147646;23;20007;-81
2023/01/11 03:09:27;;;;;;;;;;;10.20;96.40;;;9.04;82.10;99789.72;6148204;23;20011;-81
2023/01/11 03:14:59;;;;;;;;;;;10.20;96.90;;;9.04;83.22;99784.41;6148288;23;19931;-81
2023/01/11 03:17:37;;;;;;;;;;;10.20;97.20;;;9.04;83.11;99776.41;6147672;23;19920;-81
2023/01/11 03:20:09;;;;;;;;;;;10.20;97.10;;;9.07;83.47;99767.16;6147047;23;19926;-81
2023/01/11 03:22:42;;;;;;;;;;;10.20;97.40;;;9.08;83.16;99764.31;6150530;23;20003;-81
2023/01/11 03:25:16;;;;;;;;;;;10.20;97.20;;;9.07;83.42;99777.81;6148245;23;20007;-81
2023/01/11 03:27:50;;;;;;;;;;;10.20;97.30;;;9.07;83.52;99778.63;6149758;23;20006;-81
2023/01/11 03:30:24;;;;;;;;;;;10.30;97.40;;;9.10;83.51;99780.06;6147958;23;19920;-81
2023/01/11 03:32:55;;;;;;;;;;;10.20;97.20;;;9.12;83.34;99776.13;6151196;23;19935;-81
2023/01/11 03:35:26;;;;;;;;;;;10.30;97.40;;;9.13;83.42;99769.78;6150076;23;19925;-81
2023/01/11 03:37:57;;;;;;;;;;;10.30;97.60;;;9.14;83.49;99766.09;6150612;23;20004;-81
2023/01/11 03:40:28;;;;;;;;;;;10.30;97.60;;;9.15;83.83;99770.38;6150058;23;19921;-81
2023/01/11 03:43:12;;;;;;;;;;;10.30;97.90;;;9.16;83.91;99779.16;6151164;23;20003;-81
2023/01/11 03:45:45;;;;;;;;;;;10.30;97.80;;;9.17;84.44;99770.16;6150388;23;19920;-81
2023/01/11 03:48:15;;;;;;;;;;;10.30;98.30;;;9.16;84.58;99761.34;6150672;23;19920;-81
2023/01/11 03:50:42;;;;;;;;;;;10.30;98.30;;;9.18;84.65;99767.28;6150208;23;19950;-81
2023/01/11 03:53:10;;;;;;;;;;;10.30;98.30;;;9.24;84.53;99758.41;6148233;23;19917;-81
2023/01/11 03:55:39;;;;;;;;;;;10.30;98.10;;;9.24;84.58;99763.75;6150314;23;19927;-81
2023/01/11 03:58:07;;;;;;;;;;;10.30;98.30;;;9.25;84.68;99769.88;6148783;23;19924;-81
2023/01/11 04:00:36;;;;;;;;;;;10.40;98.60;;;9.26;85.19;99772.31;6148186;23;19920;-81
2023/01/11 04:03:04;;;;;;;;;;;10.40;98.70;;;9.27;84.97;99767.78;6148133;23;19920;-81
2023/01/11 04:05:35;;;;;;;;;;;10.40;98.70;;;9.28;85.00;99759.63;6148083;23;20354;-76
2023/01/11 04:08:01;;;;;;;;;;;10.40;98.70;;;9.28;85.21;99764.94;6149616;23;19920;-78
2023/01/11 04:10:28;;;;;;;;;;;10.40;98.70;;;9.29;85.09;99747.94;6148488;23;19931;-78
2023/01/11 04:12:56;;;;;;;;;;;10.40;98.80;;;9.29;85.54;99747.94;6150483;23;19948;-78
2023/01/11 04:15:22;;;;;;;;;;;10.40;98.90;;;9.30;85.02;99743.41;6150208;23;19952;-78
2023/01/11 04:17:49;;;;;;;;;;;10.40;98.50;;;9.33;85.27;99743.00;6149423;23;19920;-78
2023/01/11 04:20:18;;;;;;;;;;;10.40;98.80;;;9.36;85.13;99752.38;6150183;23;20251;-78
2023/01/11 04:22:45;;;;;;;;;;;10.40;98.70;;;9.38;84.94;99760.97;6149560;23;19963;-78
2023/01/11 04:25:12;;;;;;;;;;;10.50;98.70;;;9.38;85.28;99760.97;6148725;23;20003;-78
2023/01/11 04:27:40;;;;;;;;;;;10.50;99.00;;;9.37;85.36;99751.31;6147628;23;19924;-78
2023/01/11 04:30:08;;;;;;;;;;;10.50;98.90;;;9.39;85.15;99751.94;6149343;23;19921;-78
2023/01/11 04:32:35;;;;;;;;;;;10.50;98.70;;;9.41;85.14;99744.53;6149482;23;20478;-78
2023/01/11 04:35:02;;;;;;;;;;;10.50;98.70;;;9.42;84.84;99732.84;6148317;23;19920;-78
2023/01/11 04:37:30;;;;;;;;;;;10.50;98.30;;;9.43;84.83;99737.16;6149790;23;19924;-78
2023/01/11 04:39:57;;;;;;;;;;;10.50;98.30;;;9.44;85.00;99725.47;6150622;23;20003;-78
2023/01/11 04:42:24;;;;;;;;;;;10.60;98.50;;;9.44;84.87;99730.78;6150637;23;19921;-78
2023/01/11 04:44:52;;;;;;;;;;;10.60;98.50;;;9.42;85.27;99736.34;6150044;23;19928;-78
2023/01/11 04:47:20;;;;;;;;;;;10.50;98.90;;;9.43;85.78;99724.66;6147510;23;19924;-78
2023/01/11 04:49:47;;;;;;;;;;;10.50;99.20;;;9.43;85.85;99734.50;6148940;23;19920;-78
2023/01/11 04:52:16;;;;;;;;;;;10.50;99.30;;;9.42;86.32;99743.50;6150266;23;19921;-78
2023/01/11 04:54:45;;;;;;;;;;;10.60;99.50;;;9.44;86.25;99725.47;6149989;23;19928;-78
2023/01/11 04:57:13;;;;;;;;;;;10.60;99.50;;;9.43;86.17;99735.31;6148107;23;19921;-78
2023/01/11 04:59:40;;;;;;;;;;;10.50;99.20;;;9.43;86.09;99735.31;6148717;23;19931;-78
2023/01/11 05:02:07;;;;;;;;;;;10.50;99.30;;;9.46;86.39;99723.38;6148107;23;20262;-78
2023/01/11 05:04:34;;;;;;;;;;;10.60;99.60;;;9.47;86.71;99725.84;6150746;23;19971;-78
2023/01/11 05:07:01;;;;;;;;;;;10.60;99.90;;;9.48;86.92;99721.34;6151719;23;19943;-78
2023/01/11 05:09:28;;;;;;;;;;;10.60;99.70;;;9.48;87.17;99739.97;6152931;23;19920;-76
2023/01/11 05:11:56;;;;;;;;;;;10.60;99.90;;;9.47;87.21;99730.34;6150972;23;19995;-76
2023/01/11 05:14:23;;;;;;;;;;;10.60;99.90;;;9.49;87.53;99723.75;6152630;23;19920;-76
2023/01/11 05:16:50;;;;;;;;;;;10.60;99.90;;;9.51;87.48;99728.84;6152205;23;19925;-76
2023/01/11 05:19:17;;;;;;;;;;;10.60;99.90;;;9.52;87.41;99726.00;6152731;23;19920;-75
2023/01/11 05:21:44;;;;;;;;;;;10.70;99.90;;;9.53;87.76;99732.94;6150180;23;19943;-75
2023/01/11 05:24:13;;;;;;;;;;;10.70;99.90;;;9.54;87.67;99726.56;6150601;23;20295;-75
2023/01/11 05:26:41;;;;;;;;;;;10.70;99.90;;;9.57;87.62;99730.66;6151995;23;20259;-75
2023/01/11 05:29:11;;;;;;;;;;;10.70;99.90;;;9.57;87.34;99730.66;6152508;23;19946;-76
2023/01/11 05:31:39;;;;;;;;;;;10.70;99.90;;;9.58;87.43;99737.59;6152185;23;19927;-75
2023/01/11 05:34:07;;;;;;;;;;;10.70;99.90;;;9.60;87.44;99735.50;6151992;23;19916;-76
2023/01/11 05:36:35;;;;;;;;;;;10.70;99.90;;;9.60;87.76;99732.84;6151540;23;19927;-76
2023/01/11 05:39:02;;;;;;;;;;;10.70;99.90;;;9.63;87.97;99729.75;6151396;23;19917;-75
2023/01/11 05:41:29;;;;;;;;;;;10.80;99.90;;;9.61;88.10;99731.81;6152559;23;19920;-76
2023/01/11 05:46:42;;;;;;;;;;;10.80;99.90;;;9.65;88.82;99729.50;6150976;23;19929;-76
2023/01/11 05:49:11;;;;;;;;;;;10.80;99.90;;;9.66;88.56;99723.16;6151099;23;19924;-76
2023/01/11 05:51:38;;;;;;;;;;;10.80;99.90;;;9.67;88.54;99725.59;6151415;23;19920;-76
2023/01/11 05:54:06;;;;;;;;;;;10.80;99.90;;;9.70;88.73;99732.31;6151603;23;19963;-76
2023/01/11 05:56:33;;;;;;;;;;;10.80;99.90;;;9.70;88.87;99725.16;6150587;23;19973;-76
2023/01/11 05:59:01;;;;;;;;;;;10.80;99.90;;;9.71;88.40;99731.28;6151802;23;19931;-76
2023/01/11 06:01:28;;;;;;;;;;;10.80;99.90;;;9.74;88.33;99730.84;6151513;23;19927;-76
2023/01/11 06:03:56;;;;;;;;;;;10.90;99.90;;;9.74;88.02;99730.84;6151617;23;19927;-77
2023/01/11 06:06:23;;;;;;;;;;;10.90;99.90;;;9.73;88.46;99724.72;6148250;23;19920;-76
2023/01/11 06:08:50;;;;;;;;;;;10.90;99.90;;;9.74;88.63;99726.31;6150358;23;19935;-77
2023/01/11 06:11:18;;;;;;;;;;;11.00;99.90;;;9.75;88.56;99721.81;6150250;23;19922;-76
2023/01/11 06:13:45;;;;;;;;;;;10.90;99.90;;;9.75;88.64;99719.97;6151690;23;19951;-76
2023/01/11 06:16:14;;;;;;;;;;;10.90;99.90;;;9.76;89.21;99718.94;6149998;23;19916;-76
2023/01/11 06:18:42;;;;;;;;;;;10.90;99.90;;;9.76;89.05;99718.94;6151360;23;19920;-76
2023/01/11 06:21:11;;;;;;;;;;;10.90;99.90;;;9.77;89.10;99719.75;6150025;23;19921;-77
2023/01/11 06:23:39;;;;;;;;;;;10.90;99.90;;;9.78;89.40;99724.84;6150695;23;20003;-76
2023/01/11 06:26:08;;;;;;;;;;;10.90;99.90;;;9.79;89.59;99718.47;6150531;23;19924;-77
2023/01/11 06:28:36;;;;;;;;;;;10.90;99.90;;;9.79;89.66;99723.81;6149980;23;20010;-77
2023/01/11 06:31:03;;;;;;;;;;;10.90;99.90;;;9.82;89.82;99721.75;6150649;23;20032;-77
2023/01/11 06:33:31;;;;;;;;;;;10.90;99.90;;;9.83;89.94;99713.53;6150923;23;19928;-78
2023/01/11 06:35:58;;;;;;;;;;;10.90;99.90;;;9.86;89.69;99713.09;6149671;23;20011;-77
2023/01/11 06:38:26;;;;;;;;;;;10.90;99.90;;;9.87;89.40;99712.03;6151030;23;19927;-77
2023/01/11 06:40:55;;;;;;;;;;;11.00;99.90;;;9.90;89.35;99719.56;6149862;23;19926;-77
2023/01/11 06:43:23;;;;;;;;;;;11.00;99.90;;;9.92;89.51;99717.50;6150107;23;19999;-77
2023/01/11 06:45:50;;;;;;;;;;;11.00;99.90;;;9.94;89.30;99715.41;6150059;23;19935;-78
2023/01/11 06:48:17;;;;;;;;;;;11.00;99.90;;;9.95;89.42;99724.22;6151099;23;19951;-77
2023/01/11 06:50:47;;;;;;;;;;;11.00;99.90;;;9.96;89.47;99720.53;6150765;23;19929;-81
2023/01/11 06:53:14;;;;;;;;;;;11.00;99.90;;;9.96;89.56;99724.00;6147550;23;19979;-77
2023/01/11 06:55:43;;;;;;;;;;;11.00;99.90;;;9.97;89.63;99727.47;6149863;23;19932;-77
2023/01/11 06:58:10;;;;;;;;;;;11.10;99.90;;;9.98;89.79;99726.44;6148222;23;19962;-77
2023/01/11 07:00:37;;;;;;;;;;;11.10;99.90;;;9.97;89.74;99735.47;6151564;23;19917;-77
2023/01/11 07:03:04;;;;;;;;;;;11.10;99.90;;;9.96;90.30;99747.97;6150263;23;19920;-77
2023/01/11 07:05:32;;;;;;;;;;;11.10;99.90;;;9.96;90.24;99744.50;6151158;23;20481;-77
2023/01/11 07:07:59;;;;;;;;;;;11.10;99.90;;;9.99;90.30;99749.38;6151103;23;19920;-77
2023/01/11 07:10:26;;;;;;;;;;;11.10;99.90;;;9.99;90.30;99757.34;6151342;23;19921;-77
2023/01/11 07:12:54;;;;;;;;;;;11.10;99.90;;;9.99;90.61;99754.69;6151378;23;19916;-77
2023/01/11 07:15:22;;;;;;;;;;;11.10;99.90;;;9.99;90.50;99768.00;6151357;23;19953;-77
2023/01/11 07:17:54;;;;;;;;;;;11.10;99.90;;;10.01;90.84;99773.94;6149543;23;19927;-77
2023/01/11 07:20:21;;;;;;;;;;;11.10;99.90;;;10.03;90.81;99779.84;6151473;23;19925;-77
2023/01/11 07:22:48;;;;;;;;;;;11.10;99.90;;;10.04;90.79;99778.81;6151356;23;19917;-76
2023/01/11 07:25:15;;;;;;;;;;;11.10;99.90;;;10.04;90.97;99779.63;6150362;23;19991;-77
2023/01/11 07:27:42;;;;;;;;;;;11.10;99.90;;;10.06;90.72;99790.88;6149908;23;20438;-77
2023/01/11 07:30:11;;;;;;;;;;;11.20;99.90;;;10.07;90.69;99783.69;6150837;23;19927;-77
2023/01/11 07:32:38;;;;;;;;;;;11.20;99.90;;;10.09;90.67;99786.94;6150740;23;20387;-77
2023/01/11 07:35:06;;;;;;;;;;;11.20;99.90;;;10.11;90.53;99795.53;6148986;23;20259;-76
2023/01/11 07:37:36;;;;;;;;;;;11.20;99.90;;;10.13;90.82;99803.31;6149851;23;19916;-77
2023/01/11 07:40:05;;;;;;;;;;;11.20;99.90;;;10.14;90.87;99800.41;6149766;23;19927;-78
2023/01/11 07:45:17;;;;;;;;;;;11.20;99.90;;;10.16;90.42;99808.19;6150827;23;19920;-77
2023/01/11 07:47:44;;;;;;;;;;;11.20;99.90;;;10.19;90.71;99807.72;6149624;23;20354;-77
2023/01/11 07:50:11;;;;;;;;;;;11.30;99.90;;;10.20;90.86;99804.00;6150490;23;19921;-77
2023/01/11 07:52:38;;;;;;;;;;;11.30;99.90;;;10.20;90.87;99780.88;6150019;23;19917;-77
2023/01/11 07:55:05;;;;;;;;;;;11.30;99.90;;;10.21;90.91;99784.34;6148151;23;19920;-77
2023/01/11 07:57:34;;;;;;;;;;;11.30;99.90;;;10.20;91.12;99794.19;6148736;23;19920;-77
2023/01/11 08:00:01;;;;;;;;;;;11.30;99.90;;;10.21;91.09;99803.00;6150177;23;19931;-77
2023/01/11 08:02:39;;;;;;;;;;;11.30;99.90;;;10.22;91.29;99807.28;6150225;23;19933;-77
2023/01/11 08:05:07;;;;;;;;;;;11.30;99.90;;;10.24;91.14;99797.22;6149433;23;19920;-77
2023/01/11 08:07:34;;;;;;;;;;;11.30;99.90;;;10.27;91.13;99810.13;6149451;23;19920;-77
2023/01/11 08:10:02;;;;;;;;;;;11.30;99.90;;;10.29;91.54;99797.38;6148919;23;19924;-77
2023/01/11 08:15:13;;;;;;;;;;;11.40;99.90;;;10.29;90.80;99822.16;6145147;23;19917;-77
2023/01/11 08:17:42;;;;;;;;;;;11.40;99.90;;;10.30;90.97;99820.34;6145625;23;19924;-77
2023/01/11 08:20:11;;;;;;;;;;;11.40;99.90;;;10.30;90.72;99829.16;6147367;23;19932;-76
2023/01/11 08:22:38;;;;;;;;;;;11.40;99.90;;;10.30;90.69;99821.16;6147431;23;20250;-76
2023/01/11 08:25:05;;;;;;;;;;;11.40;99.90;;;10.34;90.65;99818.81;6147480;23;19921;-77
2023/01/11 08:27:32;;;;;;;;;;;11.50;99.90;;;10.34;90.82;99823.34;6147467;23;19927;-77
2023/01/11 08:29:59;;;;;;;;;;;11.50;99.90;;;10.35;90.66;99822.31;6145939;23;19971;-77
2023/01/11 08:32:28;;;;;;;;;;;11.40;99.90;;;10.36;90.74;99834.63;6148379;23;19926;-77
2023/01/11 08:34:56;;;;;;;;;;;11.50;99.90;;;10.33;91.14;99827.88;6146133;23;19943;-77
2023/01/11 08:37:23;;;;;;;;;;;11.50;99.90;;;10.33;91.08;99833.19;6148333;23;20347;-77
2023/01/11 08:39:50;;;;;;;;;;;11.40;99.90;;;10.35;91.03;99851.66;6149340;23;20287;-77
2023/01/11 08:42:17;;;;;;;;;;;11.50;99.90;;;10.37;90.94;99853.03;6152127;23;19920;-77
2023/01/11 08:44:44;;;;;;;;;;;11.50;99.90;;;10.36;91.01;99869.25;6152541;23;19917;-76
2023/01/11 08:47:11;;;;;;;;;;;11.40;99.90;;;10.38;91.18;99869.84;6152142;23;19924;-76
2023/01/11 08:49:41;;;;;;;;;;;11.50;99.90;;;10.37;91.05;99887.69;6152038;23;19916;-76
2023/01/11 08:52:12;;;;;;;;;;;11.40;99.90;;;10.39;90.78;99892.78;6151696;23;19921;-76
2023/01/11 08:54:39;;;;;;;;;;;11.50;99.90;;;10.40;90.71;99894.44;6150876;23;19924;-76
2023/01/11 08:57:06;;;;;;;;;;;11.40;99.90;;;10.40;90.47;99889.09;6151993;23;19920;-76
2023/01/11 08:59:33;;;;;;;;;;;11.50;99.90;;;10.38;90.30;99904.50;6152808;23;20394;-76
2023/01/11 09:02:01;;;;;;;;;;;11.40;99.90;;;10.39;90.16;99898.13;6152489;23;19921;-76
2023/01/11 09:04:28;;;;;;;;;;;11.40;99.90;;;10.38;89.98;99899.16;6152571;23;19920;-76
2023/01/11 09:06:55;;;;;;;;;;;11.40;99.90;;;10.37;89.63;99885.03;6151125;23;19999;-76
2023/01/11 09:09:23;;;;;;;;;;;11.50;99.90;;;10.38;89.38;99891.16;6152094;23;19951;-76
2023/01/11 09:11:55;;;;;;;;;;;11.50;99.90;;;10.36;89.18;99914.56;6150913;23;19920;-76
2023/01/11 09:14:23;;;;;;;;;;;11.40;99.90;;;10.36;89.04;99923.38;6151708;23;19931;-76
2023/01/11 09:16:51;;;;;;;;;;;11.50;99.90;;;10.37;88.78;99926.84;6150552;23;19926;-76
2023/01/11 09:19:17;;;;;;;;;;;11.50;99.90;;;10.37;88.42;99934.84;6152376;23;19927;-76
2023/01/11 09:21:45;;;;;;;;;;;11.50;99.90;;;10.33;87.71;99931.81;6152619;23;19916;-76
2023/01/11 09:24:12;;;;;;;;;;;11.40;99.90;;;10.26;87.32;99945.22;6150048;23;19927;-76
2023/01/11 09:26:42;;;;;;;;;;;11.40;99.90;;;10.26;87.08;99947.88;6151520;23;19952;-76
2023/01/11 09:29:09;;;;;;;;;;;11.40;99.90;;;10.26;87.03;99961.22;6151035;23;19944;-76
2023/01/11 09:31:36;;;;;;;;;;;11.30;99.90;;;10.27;86.60;99959.38;6152212;23;20255;-76
2023/01/11 09:34:03;;;;;;;;;;;11.30;99.50;;;10.24;86.67;99959.78;6150824;23;19921;-76
2023/01/11 09:36:32;;;;;;;;;;;11.30;99.90;;;10.22;86.72;99961.84;6149251;23;19920;-76
2023/01/11 09:39:01;;;;;;;;;;;11.30;99.90;;;10.23;86.88;99964.28;6152154;23;19948;-76
2023/01/11 09:41:38;;;;;;;;;;;11.30;99.80;;;10.21;86.16;99969.03;6152221;23;19928;-76
2023/01/11 09:44:10;;;;;;;;;;;11.30;99.50;;;10.18;86.43;99961.47;6152225;23;20250;-76
2023/01/11 09:46:41;;;;;;;;;;;11.30;99.60;;;10.14;86.32;99970.94;6151132;23;19920;-76
2023/01/11 09:49:14;;;;;;;;;;;11.30;99.40;;;10.14;86.48;99976.25;6151837;23;19928;-75
2023/01/11 09:51:42;;;;;;;;;;;11.50;99.70;;;10.17;86.68;99980.34;6152449;23;19924;-76
2023/01/11 09:54:15;;;;;;;;;;;11.30;99.70;;;10.19;86.34;99980.94;6150068;23;19917;-76
2023/01/11 09:56:48;;;;;;;;;;;11.30;99.50;;;10.12;85.76;99977.53;6149752;23;19930;-75
2023/01/11 09:59:23;;;;;;;;;;;11.30;99.10;;;10.11;85.80;99989.22;6151833;23;20340;-76
2023/01/11 10:01:53;;;;;;;;;;;11.20;99.10;;;10.12;86.06;99991.66;6149909;23;20603;-76
2023/01/11 10:04:41;;;;;;;;;;;11.30;99.50;;;10.13;86.07;100003.13;6149363;23;19920;-78
2023/01/11 10:07:38;;;;;;;;;;;11.20;99.30;;;10.15;85.91;100004.56;6150770;23;19920;-77
2023/01/11 10:10:14;;;;;;;;;;;11.20;99.10;;;10.11;85.87;100011.34;6151114;23;20355;-77
2023/01/11 10:12:47;;;;;;;;;;;11.20;99.10;;;10.10;85.50;100009.69;6151665;23;19921;-77
2023/01/11 10:15:24;;;;;;;;;;;11.20;99.00;;;10.11;85.90;99997.22;6151715;23;19951;-77
2023/01/11 10:18:02;;;;;;;;;;;11.20;99.20;;;10.10;85.62;99999.03;6150426;23;19931;-77
2023/01/11 10:20:36;;;;;;;;;;;11.20;99.10;;;10.08;85.17;99998.47;6149214;23;19940;-77
2023/01/11 10:23:07;;;;;;;;;;;11.20;98.70;;;10.02;84.45;100002.00;6150825;23;19927;-77
2023/01/11 10:25:43;;;;;;;;;;;11.20;98.10;;;10.01;85.28;100003.06;6150981;23;19943;-77
2023/01/11 10:28:16;;;;;;;;;;;11.30;98.70;;;10.08;85.39;100009.13;6148446;23;19951;-77
2023/01/11 10:31:05;;;;;;;;;;;11.20;98.60;;;10.10;85.21;100000.91;6148470;23;19948;-77
2023/01/11 10:34:04;;;;;;;;;;;11.20;98.70;;;10.14;85.22;100018.91;6151744;23;19955;-77
2023/01/11 10:36:50;;;;;;;;;;;11.20;98.50;;;10.15;84.92;100023.22;6150274;23;20007;-77
2023/01/11 10:39:38;;;;;;;;;;;11.20;98.30;;;10.13;84.50;100011.94;6150632;23;20003;-77
2023/01/11 10:42:10;;;;;;;;;;;11.20;98.10;;;10.12;84.54;100015.66;6150394;23;19923;-77
2023/01/11 10:44:41;;;;;;;;;;;11.20;98.00;;;10.10;84.11;100016.88;6149762;23;19944;-77
2023/01/11 10:47:15;;;;;;;;;;;11.20;97.70;;;10.07;84.26;100018.97;6149841;23;19959;-77
2023/01/11 10:49:45;;;;;;;;;;;11.20;97.90;;;10.10;83.35;100019.56;6150695;23;19979;-77
2023/01/11 10:52:24;;;;;;;;;;;11.20;96.80;;;10.10;83.70;100022.22;6150001;23;20272;-78
2023/01/11 10:54:54;;;;;;;;;;;11.20;97.70;;;10.15;83.87;100027.69;6150570;23;19927;-78
2023/01/11 10:57:29;;;;;;;;;;;11.20;97.70;;;10.10;83.03;100025.69;6149582;23;19972;-79
2023/01/11 11:00:08;;;;;;;;;;;11.20;96.90;;;10.11;82.94;100029.19;6149841;23;20628;-78
2023/01/11 11:02:48;;;;;;;;;;;11.20;96.90;;;10.13;83.58;100022.59;6150262;23;19920;-78
2023/01/11 11:05:27;;;;;;;;;;;11.20;97.60;;;10.14;83.74;100024.22;6150360;23;19916;-78
2023/01/11 11:07:58;;;;;;;;;;;11.20;97.70;;;10.11;83.84;100026.53;6150199;23;19927;-79
2023/01/11 11:10:31;;;;;;;;;;;11.20;97.60;;;10.14;83.97;100034.88;6150553;23;19920;-79
2023/01/11 11:13:04;;;;;;;;;;;11.20;97.70;;;10.13;83.86;100038.59;6149636;23;20073;-79
2023/01/11 11:15:36;;;;;;;;;;;11.20;97.30;;;10.09;81.53;100042.72;6147878;23;19924;-79
2023/01/11 11:18:04;;;;;;;;;;;11.20;95.60;;;10.04;82.05;100048.69;6150033;23;19920;-78
2023/01/11 11:20:32;;;;;;;;;;;11.20;96.40;;;10.07;81.91;100039.47;6148313;23;19973;-78
2023/01/11 11:23:00;;;;;;;;;;;11.20;96.40;;;10.10;82.17;100032.88;6151351;23;19920;-78
2023/01/11 11:25:30;;;;;;;;;;;11.20;96.40;;;10.06;81.30;100041.31;6149442;23;19920;-87
2023/01/11 11:28:01;;;;;;;;;;;11.20;95.60;;;10.04;81.09;100043.38;6146734;23;19955;-77
2023/01/11 11:30:30;;;;;;;;;;;11.10;95.60;;;10.03;80.72;100046.25;6150978;23;20295;-80
2023/01/11 11:33:00;;;;;;;;;;;11.10;95.40;;;10.04;81.06;100045.22;6149748;23;19927;-83
2023/01/11 11:35:34;;;;;;;;;;;11.10;96.00;;;10.00;80.67;100054.69;6150311;23;19991;-84
2023/01/11 11:38:01;;;;;;;;;;;11.10;95.60;;;10.00;80.63;100060.84;6150467;23;19920;-83
2023/01/11 11:40:30;;;;;;;;;;;11.10;95.30;;;10.00;80.70;100057.34;6151234;23;19921;-82
2023/01/11 11:43:11;;;;;;;;;;;11.10;95.60;;;10.05;81.15;100060.16;6150756;23;19921;-82
2023/01/11 11:45:51;;;;;;;;;;;11.10;95.80;;;10.10;81.19;100054.19;6150838;23;19990;-82
2023/01/11 11:48:19;;;;;;;;;;;11.20;95.90;;;10.10;80.49;100054.19;6150384;23;19928;-83
2023/01/11 11:50:48;;;;;;;;;;;11.20;95.40;;;10.10;80.72;100057.66;6150987;23;19930;-82
2023/01/11 11:53:34;;;;;;;;;;;11.20;95.20;;;10.09;80.64;100068.56;6151589;23;19920;-82
2023/01/11 11:56:07;;;;;;;;;;;11.20;95.20;;;10.10;80.09;100070.19;6149410;23;19920;-82